Time;durP1;ratioP1;P1;durP2;ratioP2;P2;SDS_P1;SDS_P2;PMS_P1;PMS_P2;Temp;Humidity;BMP_temperature;BMP_pressure;BME280_temperature;BME280_humidity;BME280_pressure;Samples;Min_cycle;Max_cycle;Signal;HPM_P1;HPM_P2
2021/09/11 00:01:18;;;;;;;6.53;5.92;;;;;;;15.36;58.51;94660.95;828257;71;32654;-77
2021/09/11 00:16:15;;;;;;;11.73;9.35;;;;;;;15.22;58.65;94659.23;828124;71;32765;-77
2021/09/11 00:31:14;;;;;;;6.30;5.70;;;;;;;15.13;58.41;94670.92;828447;71;32657;-76
2021/09/11 00:46:09;;;;;;;6.40;5.80;;;;;;;14.98;58.23;94670.83;829090;71;30284;-75
2021/09/11 01:01:14;;;;;;;6.62;5.92;;;;;;;14.86;59.64;94668.80;828087;71;32658;-76
2021/09/11 01:16:12;;;;;;;6.58;5.95;;;;;;;14.68;60.17;94668.55;828289;71;32117;-79
2021/09/11 01:31:08;;;;;;;8.83;7.92;;;;;;;17.18;67.47;94671.27;828174;71;29794;-76
2021/09/11 01:46:09;;;;;;;8.35;7.55;;;;;;;19.63;51.48;94674.27;828014;71;30430;-78
2021/09/11 02:01:08;;;;;;;7.87;6.10;;;;;;;20.65;46.63;94662.30;834184;71;29744;-78
2021/09/11 02:16:08;;;;;;;7.42;6.72;;;;;;;20.98;45.36;94655.17;834569;71;29835;-77
2021/09/11 02:31:09;;;;;;;7.22;6.53;;;;;;;21.07;44.64;94648.31;834558;71;31158;-77
2021/09/11 02:46:08;;;;;;;7.92;7.10;;;;;;;21.20;43.55;94647.80;830059;71;29715;-77
2021/09/11 03:16:08;;;;;;;7.53;6.70;;;;;;;21.00;43.66;94659.06;828298;71;30145;-76
2021/09/11 03:31:15;;;;;;;6.25;5.65;;;;;;;21.00;43.73;94663.06;827479;71;32677;-77
2021/09/11 03:46:08;;;;;;;5.62;5.03;;;;;;;20.90;43.72;94666.25;828288;71;30143;-76
2021/09/11 04:01:08;;;;;;;9.60;5.33;;;;;;;20.79;44.06;94667.94;828355;71;29685;-78
2021/09/11 04:16:08;;;;;;;6.60;6.00;;;;;;;20.75;43.82;94661.19;834117;71;29644;-77
2021/09/11 04:31:15;;;;;;;5.72;5.22;;;;;;;21.53;42.86;94671.94;834007;71;32680;-77
2021/09/11 04:46:19;;;;;;;6.00;5.50;;;;;;;22.07;41.89;94676.88;833925;71;32682;-78
2021/09/11 05:01:08;;;;;;;6.90;6.30;;;;;;;22.59;40.73;94682.70;828479;71;29715;-78
2021/09/11 05:16:08;;;;;;;7.00;6.13;;;;;;;23.10;39.95;94676.92;828397;71;29685;-78
2021/09/11 05:31:09;;;;;;;9.70;8.20;;;;;;;22.55;39.90;94678.63;834297;71;30840;-80
2021/09/11 05:46:13;;;;;;;8.87;7.77;;;;;;;21.78;43.30;94683.06;827397;71;32659;-74
2021/09/11 06:01:08;;;;;;;9.93;9.10;;;;;;;23.08;41.25;94673.08;833889;71;30169;-78
2021/09/11 06:16:15;;;;;;;10.03;9.00;;;;;;;23.09;39.76;94666.57;828425;71;32733;-80
2021/09/11 06:31:12;;;;;;;9.80;8.90;;;;;;;21.79;41.71;94671.24;835979;70;31799;-79
2021/09/11 06:46:17;;;;;;;8.43;7.70;;;;;;;21.98;40.99;94675.02;820987;71;32857;-77
2021/09/11 07:01:12;;;;;;;9.10;8.03;;;;;;;21.83;41.08;94661.96;824323;71;32176;-80
2021/09/11 07:16:08;;;;;;;13.10;10.67;;;;;;;22.56;39.69;94656.08;823634;71;29776;-78
2021/09/11 07:31:15;;;;;;;9.07;8.23;;;;;;;22.77;39.45;94656.20;822231;71;32960;-82
2021/09/11 07:46:14;;;;;;;9.40;8.00;;;;;;;23.07;38.69;94652.20;824180;71;32785;-81
2021/09/11 08:01:30;;;;;;;7.53;6.77;;;;;;;23.76;37.83;94632.30;829559;71;32997;-79
2021/09/11 08:16:09;;;;;;;10.43;6.03;;;;;;;24.28;36.25;94620.31;834241;71;30268;-79
2021/09/11 08:31:09;;;;;;;7.47;6.43;;;;;;;24.62;36.35;94606.20;828363;71;30051;-78
2021/09/11 08:46:08;;;;;;;7.10;6.40;;;;;;;25.45;35.83;94603.30;819709;71;29654;-79
2021/09/11 09:16:13;;;;;;;9.87;6.27;;;;;;;;;;834403;71;32820;-76
2021/09/11 09:31:09;;;;;;;5.07;4.67;;;;;;;;;;828292;71;29705;-75
2021/09/11 09:46:11;;;;;;;5.40;5.00;;;;;;;29.56;28.72;94557.45;834686;71;29843;-76
2021/09/11 10:01:08;;;;;;;5.77;5.37;;;;;;;28.87;28.13;94544.64;828513;71;29700;-76
2021/09/11 10:16:16;;;;;;;5.03;4.63;;;;;;;28.82;26.44;94534.30;827677;71;32753;-78
2021/09/11 10:31:14;;;;;;;5.13;4.70;;;;;;;29.01;26.10;94532.89;834079;71;32673;-77
2021/09/11 10:46:11;;;;;;;5.10;4.70;;;;;;;30.07;24.66;94530.41;834754;71;30360;-78
2021/09/11 11:01:08;;;;;;;5.50;5.00;;;;;;;30.46;24.69;94506.73;834411;71;30149;-78
2021/09/11 11:16:08;;;;;;;5.23;4.23;;;;;;;29.85;22.08;94482.08;834870;71;29751;-78
2021/09/11 11:31:14;;;;;;;4.40;4.10;;;;;;;29.21;22.36;94453.31;828959;71;31669;-78
2021/09/11 11:46:08;;;;;;;4.80;4.27;;;;;;;29.78;22.00;94438.89;829410;71;29652;-77
2021/09/11 12:01:17;;;;;;;4.13;3.83;;;;;;;29.10;20.96;94429.88;834283;71;33218;-78
2021/09/11 12:16:15;;;;;;;4.03;3.70;;;;;;;28.71;20.21;94420.41;827921;71;32836;-79
2021/09/11 12:31:29;;;;;;;4.27;3.87;;;;;;;28.43;21.25;94391.02;826908;71;33272;-79
2021/09/11 12:46:27;;;;;;;3.37;3.17;;;;;;;28.28;19.97;94376.36;828109;71;32680;-77
2021/09/11 13:01:20;;;;;;;4.43;4.03;;;;;;;28.47;18.76;94364.77;827710;71;33145;-77
2021/09/11 13:16:58;;;;;;;3.40;3.10;;;;;;;27.50;17.49;94355.81;833864;71;26964;-76
2021/09/11 13:31:08;;;;;;;2.50;2.30;;;;;;;;;;828071;71;30382;-75
2021/09/11 13:46:08;;;;;;;3.10;2.90;;;;;;;;;;828269;71;30240;-75
2021/09/11 14:01:14;;;;;;;2.67;2.50;;;;;;;26.81;18.37;94335.20;827438;71;32716;-76
2021/09/11 14:16:18;;;;;;;2.70;2.57;;;;;;;;;;829138;71;32897;-83
2021/09/11 14:31:12;;;;;;;2.77;2.57;;;;;;;26.18;19.01;94333.24;829688;71;31954;-78
2021/09/11 14:46:13;;;;;;;5.40;3.43;;;;;;;;;;835513;71;32775;-81
2021/09/11 15:16:11;;;;;;;275.67;256.30;;;;;;;25.66;21.17;94316.31;828444;71;29948;-77
2021/09/11 15:31:09;;;;;;;308.80;283.30;;;;;;;25.51;21.75;94320.20;834006;71;30541;-77
2021/09/11 15:46:12;;;;;;;26.60;24.37;;;;;;;25.18;23.16;94327.50;834068;71;29361;-81
2021/09/11 16:01:09;;;;;;;22.30;20.30;;;;;;;24.75;25.73;94339.59;828251;71;29805;-75
2021/09/11 16:16:09;;;;;;;22.83;20.70;;;;;;;24.06;27.41;94346.68;830058;71;29381;-79
2021/09/11 16:31:09;;;;;;;9.87;5.73;;;;;;;23.33;26.28;94344.75;830121;71;29659;-78
2021/09/11 16:46:16;;;;;;;9.20;8.30;;;;;;;22.82;27.81;94340.14;833918;71;32887;-78
2021/09/11 17:01:15;;;;;;;11.60;8.77;;;;;;;22.22;29.48;94351.75;827741;71;32711;-81
2021/09/11 17:16:12;;;;;;;8.78;4.95;;;;;;;21.73;30.63;94360.14;834590;71;32003;-83
2021/09/11 17:31:17;;;;;;;7.95;7.15;;;;;;;21.26;32.91;94380.06;828449;71;32867;-83
2021/09/11 17:46:10;;;;;;;8.58;6.40;;;;;;;20.76;34.75;94395.25;828298;71;30783;-81
2021/09/11 18:01:14;;;;;;;12.23;9.90;;;;;;;20.46;37.32;94409.19;827565;71;32681;-84
2021/09/11 18:16:09;;;;;;;7.10;6.00;;;;;;;20.00;35.33;94411.14;834355;71;30216;-83
2021/09/11 18:31:16;;;;;;;9.00;6.00;;;;;;;19.96;36.43;94420.19;833774;71;33175;-83
2021/09/11 18:46:09;;;;;;;8.53;5.45;;;;;;;20.03;38.48;94422.22;834189;71;29808;-80
2021/09/11 19:01:14;;;;;;;5.83;5.30;;;;;;;19.81;36.66;94430.54;828789;71;32718;-80
2021/09/11 19:16:12;;;;;;;6.33;5.30;;;;;;;19.62;38.55;94427.23;828765;71;32499;-82
2021/09/11 19:31:14;;;;;;;7.65;4.83;;;;;;;19.85;40.21;94436.48;835905;70;32799;-83
2021/09/11 19:46:15;;;;;;;6.12;5.25;;;;;;;19.56;38.15;94433.94;834361;71;32465;-83
2021/09/11 20:01:08;;;;;;;7.62;6.55;;;;;;;19.35;38.19;94438.78;828880;71;30020;-83
2021/09/11 20:16:09;;;;;;;6.78;6.10;;;;;;;19.10;38.95;94441.62;824628;71;29704;-84
2021/09/11 20:31:10;;;;;;;6.08;5.47;;;;;;;19.30;49.13;94435.04;828148;71;30721;-75
2021/09/11 20:46:14;;;;;;;8.30;6.50;;;;;;;21.30;41.58;94428.92;827520;71;32674;-76
2021/09/11 21:16:10;;;;;;;11.38;7.47;;;;;;;22.21;38.40;94431.18;828151;71;29703;-76
2021/09/11 21:31:08;;;;;;;7.72;6.58;;;;;;;22.33;37.69;94432.13;828322;71;30173;-74
2021/09/11 21:46:09;;;;;;;6.60;6.00;;;;;;;22.43;37.22;94434.72;833985;71;30059;-76
2021/09/11 22:01:10;;;;;;;6.40;5.87;;;;;;;22.32;37.37;94442.59;833984;71;29710;-75
2021/09/11 22:16:15;;;;;;;6.40;5.63;;;;;;;22.24;37.76;94435.63;833900;71;32638;-76
2021/09/11 22:31:19;;;;;;;6.55;5.50;;;;;;;22.30;37.78;94434.94;828592;71;32692;-77
2021/09/11 22:46:09;;;;;;;5.80;5.10;;;;;;;22.16;38.28;94423.50;828502;71;29774;-76
2021/09/11 23:01:08;;;;;;;5.62;5.17;;;;;;;22.06;38.64;94408.64;834076;71;29760;-75
2021/09/11 23:16:08;;;;;;;5.92;5.40;;;;;;;22.14;38.34;94401.70;828300;71;30246;-74
2021/09/11 23:31:08;;;;;;;7.53;5.75;;;;;;;21.98;38.48;94400.55;834090;71;29699;-73
2021/09/11 23:46:15;;;;;;;6.65;5.00;;;;;;;21.88;38.56;94398.52;827386;71;32735;-77
